KCOU

Columbia Regional Airport

Columbia, Missouri, USA
METAR KCOU 182054Z 35008KT 10SM FEW044 30/18 A3000 RMK AO2 SLP148 T03000183 58012
Observed Flight Rules
Aug-18 @ 20:54 UTC (an hour ago) Visual Flight Rules
Wind Visibility Clouds
350° at 8 knots 10 miles
  • Few at 4,400' AGL
Temperatures Readings
Current 30°C / 86°F
Dewpoint 18°C / 64°F
Humidity 49%
Altimeter 30" Hg
Pressure 1014.8 hPa
Elevation 271
METAR KCOU 182054Z 35008KT 10SM FEW044 30/18 A3000 RMK AO2 SLP148 T03000183 58012
Observed Flight Rules
Aug-18 @ 20:54 UTC
(an hour ago)
VFR
Wind Visibility
350° at 8 knots 10 miles
Clouds
  • Few at 4,400' AGL
Temperature Dewpoint
30°C / 86°F 18°C / 64°F
Humidity Altimeter Pressure
49% 30" Hg 1014.8 hPa